Time;durP1;ratioP1;P1;durP2;ratioP2;P2;SDS_P1;SDS_P2;PMS_P1;PMS_P2;Temp;Humidity;BMP_temperature;BMP_pressure;BME280_temperature;BME280_humidity;BME280_pressure;Samples;Min_cycle;Max_cycle;Signal;HPM_P1;HPM_P2
2023/12/22 00:02:05;;;;;;;0.40;0.30;;;6.40;99.90;;;;;;5006417;28;20313;-75
2023/12/22 00:04:31;;;;;;;0.40;0.30;;;6.40;99.90;;;;;;5007038;28;20344;-74
2023/12/22 00:06:56;;;;;;;0.40;0.30;;;6.20;99.90;;;;;;5008737;28;20224;-74
2023/12/22 00:09:22;;;;;;;0.40;0.30;;;6.00;99.90;;;;;;5003521;28;20700;-75
2023/12/22 00:11:48;;;;;;;0.33;0.30;;;6.00;99.90;;;;;;5006941;28;20214;-74
2023/12/22 00:14:13;;;;;;;0.30;0.27;;;5.80;99.90;;;;;;4984494;28;20227;-74
2023/12/22 00:16:39;;;;;;;0.40;0.30;;;5.90;99.90;;;;;;4982348;28;20264;-74
2023/12/22 00:19:05;;;;;;;0.30;0.27;;;6.10;99.90;;;;;;4997390;28;20225;-75
2023/12/22 00:21:31;;;;;;;0.40;0.33;;;5.90;99.90;;;;;;5000019;28;20229;-74
2023/12/22 00:23:57;;;;;;;0.93;0.50;;;5.70;99.90;;;;;;5009094;28;20225;-75
2023/12/22 00:26:23;;;;;;;0.30;0.30;;;5.60;99.90;;;;;;5009530;28;20484;-74
2023/12/22 00:28:49;;;;;;;1.33;0.70;;;5.50;99.90;;;;;;4995390;28;20470;-75
2023/12/22 00:31:14;;;;;;;0.40;0.30;;;5.40;99.90;;;;;;5000584;28;20260;-75
2023/12/22 00:33:40;;;;;;;0.40;0.30;;;5.30;99.90;;;;;;5002478;28;20265;-75
2023/12/22 00:36:06;;;;;;;0.40;0.30;;;5.20;99.90;;;;;;5007764;28;20230;-74
2023/12/22 00:38:32;;;;;;;0.30;0.30;;;5.20;99.90;;;;;;4990388;28;20229;-74
2023/12/22 00:40:57;;;;;;;0.93;0.40;;;5.20;99.90;;;;;;4992042;28;20229;-74
2023/12/22 00:43:23;;;;;;;0.37;0.30;;;5.10;99.90;;;;;;5004533;28;20460;-75
2023/12/22 00:45:49;;;;;;;0.53;0.37;;;5.20;99.90;;;;;;5011097;28;20314;-74
2023/12/22 00:48:15;;;;;;;0.50;0.47;;;5.20;99.90;;;;;;5029154;28;20228;-75
2023/12/22 00:50:41;;;;;;;0.60;0.60;;;5.10;99.90;;;;;;4995236;28;20244;-74
2023/12/22 00:53:07;;;;;;;0.67;0.50;;;5.10;99.90;;;;;;5023889;28;20543;-74
2023/12/22 00:55:33;;;;;;;0.67;0.60;;;5.10;99.90;;;;;;4990735;28;20222;-75
2023/12/22 00:57:58;;;;;;;0.70;0.63;;;5.10;99.90;;;;;;4996566;28;20229;-75
2023/12/22 01:00:24;;;;;;;0.83;0.40;;;5.40;99.90;;;;;;4989905;28;20705;-75
2023/12/22 01:02:50;;;;;;;0.40;0.33;;;5.60;99.90;;;;;;5012463;28;20248;-74
2023/12/22 01:05:16;;;;;;;0.70;0.40;;;5.70;99.90;;;;;;4991664;28;20245;-75
2023/12/22 01:07:41;;;;;;;0.40;0.30;;;5.80;99.90;;;;;;4998828;28;20223;-74
2023/12/22 01:10:09;;;;;;;1.60;0.70;;;5.70;99.90;;;;;;5003804;28;20240;-75
2023/12/22 01:12:34;;;;;;;1.27;0.70;;;5.70;99.90;;;;;;4999327;28;20237;-75
2023/12/22 01:15:00;;;;;;;0.53;0.53;;;5.60;99.90;;;;;;5007547;28;20448;-75
2023/12/22 01:17:26;;;;;;;0.40;0.30;;;5.60;99.90;;;;;;5007367;28;20246;-75
2023/12/22 01:19:51;;;;;;;3.30;0.90;;;5.60;99.90;;;;;;5004927;28;20677;-75
2023/12/22 01:22:17;;;;;;;0.70;0.70;;;5.60;99.90;;;;;;5004603;28;20645;-75
2023/12/22 01:24:45;;;;;;;0.47;0.47;;;5.70;99.90;;;;;;5001301;28;20222;-74
2023/12/22 01:27:11;;;;;;;0.63;0.53;;;5.70;99.90;;;;;;5002706;28;20227;-74
2023/12/22 01:29:37;;;;;;;0.40;0.40;;;5.80;99.90;;;;;;4996829;28;20456;-73
2023/12/22 01:32:03;;;;;;;0.83;0.63;;;5.80;99.90;;;;;;5012030;28;20445;-75
2023/12/22 01:34:29;;;;;;;1.27;0.80;;;5.80;99.90;;;;;;5003706;28;20320;-74
2023/12/22 01:36:55;;;;;;;2.43;0.53;;;5.80;99.90;;;;;;5003407;28;20541;-75
2023/12/22 01:39:21;;;;;;;3.50;0.77;;;5.90;99.90;;;;;;5007941;28;20687;-75
2023/12/22 01:41:46;;;;;;;0.63;0.50;;;5.90;99.90;;;;;;5005506;28;20218;-74
2023/12/22 01:44:12;;;;;;;1.77;1.00;;;5.90;99.90;;;;;;5002031;28;20597;-74
2023/12/22 01:46:38;;;;;;;6.33;0.73;;;5.90;99.90;;;;;;4999984;28;20218;-74
2023/12/22 01:49:06;;;;;;;1.23;1.00;;;6.00;99.90;;;;;;4990610;28;20210;-74
2023/12/22 01:51:34;;;;;;;0.60;0.60;;;6.10;99.90;;;;;;4998403;28;20452;-75
2023/12/22 01:54:04;;;;;;;2.10;0.80;;;6.20;99.90;;;;;;5014492;28;20453;-75
2023/12/22 01:56:30;;;;;;;1.20;0.70;;;6.30;99.90;;;;;;4991116;28;20537;-75
2023/12/22 01:59:00;;;;;;;3.10;0.93;;;6.20;99.90;;;;;;5006061;28;20941;-76
2023/12/22 02:01:27;;;;;;;0.90;0.50;;;6.20;99.90;;;;;;5008397;28;20469;-75
2023/12/22 02:03:54;;;;;;;0.77;0.57;;;6.20;99.90;;;;;;5001670;28;20468;-74
2023/12/22 02:06:20;;;;;;;0.50;0.43;;;6.30;99.90;;;;;;4994789;28;20453;-75
2023/12/22 02:08:47;;;;;;;3.00;0.80;;;6.20;99.90;;;;;;4997539;28;20595;-75
2023/12/22 02:11:14;;;;;;;0.90;0.60;;;6.20;99.90;;;;;;5001794;28;20457;-75
2023/12/22 02:13:40;;;;;;;2.17;0.83;;;6.20;99.90;;;;;;4996760;28;20483;-74
2023/12/22 02:16:18;;;;;;;1.83;1.00;;;6.20;99.90;;;;;;5005677;28;20974;-74
2023/12/22 02:18:49;;;;;;;3.70;0.70;;;6.30;99.90;;;;;;4988760;28;20500;-75
2023/12/22 02:21:15;;;;;;;1.60;0.60;;;6.30;99.90;;;;;;5011946;28;20456;-75
2023/12/22 02:23:40;;;;;;;4.27;0.60;;;6.30;99.90;;;;;;4989435;28;20834;-74
2023/12/22 02:26:24;;;;;;;1.87;1.03;;;6.30;99.90;;;;;;4993464;28;20232;-74
2023/12/22 02:28:51;;;;;;;2.50;0.80;;;6.30;99.90;;;;;;4997130;28;20297;-74
2023/12/22 02:31:22;;;;;;;1.63;0.63;;;6.30;99.90;;;;;;4992934;28;20464;-75
2023/12/22 02:33:51;;;;;;;2.40;1.20;;;6.30;99.90;;;;;;4981258;28;20484;-75
2023/12/22 02:36:18;;;;;;;1.90;1.60;;;6.30;99.90;;;;;;5006980;28;20523;-74
2023/12/22 02:38:45;;;;;;;2.53;0.73;;;6.30;99.90;;;;;;5002817;28;20477;-74
2023/12/22 02:41:11;;;;;;;1.80;0.80;;;6.30;99.90;;;;;;4994254;28;20517;-74
2023/12/22 02:43:37;;;;;;;1.33;0.80;;;6.30;99.90;;;;;;5001804;28;20449;-74
2023/12/22 02:46:03;;;;;;;1.83;0.70;;;6.30;99.90;;;;;;4990430;28;20461;-75
2023/12/22 02:48:29;;;;;;;1.53;0.80;;;6.20;99.90;;;;;;4990679;28;20465;-75
2023/12/22 02:50:54;;;;;;;7.33;1.00;;;6.20;99.90;;;;;;5005597;28;20221;-74
2023/12/22 02:53:20;;;;;;;1.53;0.97;;;6.20;99.90;;;;;;5006483;28;20264;-75
2023/12/22 02:55:46;;;;;;;3.97;0.83;;;6.30;99.90;;;;;;4996093;28;20217;-73
2023/12/22 02:58:11;;;;;;;2.57;0.93;;;6.40;99.90;;;;;;4998761;28;20222;-74
2023/12/22 03:00:37;;;;;;;0.97;0.80;;;6.30;99.90;;;;;;5011295;28;20218;-74
2023/12/22 03:03:03;;;;;;;0.77;0.60;;;6.30;99.90;;;;;;5002480;28;20224;-74
2023/12/22 03:05:28;;;;;;;2.80;1.07;;;6.30;99.90;;;;;;4986358;28;20219;-75
2023/12/22 03:07:54;;;;;;;3.23;1.03;;;6.30;99.90;;;;;;5011278;28;20460;-74
2023/12/22 03:10:20;;;;;;;2.20;0.80;;;6.30;99.90;;;;;;4997184;28;20244;-75
2023/12/22 03:12:45;;;;;;;0.70;0.70;;;6.30;99.90;;;;;;4992144;28;20232;-74
2023/12/22 03:15:11;;;;;;;0.73;0.50;;;6.20;99.90;;;;;;4995451;28;20214;-75
2023/12/22 03:17:37;;;;;;;0.77;0.53;;;6.20;99.90;;;;;;5007506;28;20349;-75
2023/12/22 03:20:02;;;;;;;1.90;0.80;;;6.20;99.90;;;;;;5007384;28;20222;-75
2023/12/22 03:22:28;;;;;;;2.37;1.17;;;6.20;99.90;;;;;;4991318;28;20218;-74
2023/12/22 03:24:54;;;;;;;4.93;1.53;;;6.30;99.90;;;;;;5007755;28;20222;-75
2023/12/22 03:27:20;;;;;;;2.00;0.77;;;6.30;99.90;;;;;;5005769;28;20232;-75
2023/12/22 03:29:45;;;;;;;0.70;0.60;;;6.40;99.90;;;;;;4989179;28;20210;-74
2023/12/22 03:32:11;;;;;;;1.57;0.93;;;6.40;99.90;;;;;;4992071;28;20986;-75
2023/12/22 03:34:37;;;;;;;1.03;0.60;;;6.40;99.90;;;;;;4991402;28;20706;-75
2023/12/22 03:37:03;;;;;;;0.57;0.50;;;6.30;99.90;;;;;;5003340;28;20256;-75
2023/12/22 03:39:28;;;;;;;1.37;0.60;;;6.30;99.90;;;;;;5008001;28;20214;-74
2023/12/22 03:41:54;;;;;;;0.80;0.50;;;6.30;99.90;;;;;;5006200;28;20220;-74
2023/12/22 03:44:19;;;;;;;0.87;0.63;;;6.30;99.90;;;;;;5012587;28;20218;-75
2023/12/22 03:46:45;;;;;;;1.00;0.70;;;6.20;99.90;;;;;;4991940;28;20219;-74
2023/12/22 03:49:11;;;;;;;0.87;0.40;;;6.20;99.90;;;;;;4998480;28;20301;-75
2023/12/22 03:51:37;;;;;;;0.47;0.43;;;6.20;99.90;;;;;;5004894;28;20304;-75
2023/12/22 03:54:03;;;;;;;0.77;0.60;;;6.20;99.90;;;;;;5000778;28;20229;-74
2023/12/22 03:56:29;;;;;;;0.57;0.40;;;6.20;99.90;;;;;;5008685;28;20452;-74
2023/12/22 03:58:55;;;;;;;2.10;0.40;;;6.20;99.90;;;;;;5007607;28;20234;-74
2023/12/22 04:01:21;;;;;;;0.50;0.50;;;6.20;99.90;;;;;;5010130;28;20218;-74
2023/12/22 04:03:46;;;;;;;0.77;0.50;;;6.10;99.90;;;;;;5001855;28;20526;-74
2023/12/22 04:06:12;;;;;;;0.77;0.50;;;6.10;99.90;;;;;;5006256;28;20227;-75
2023/12/22 04:08:38;;;;;;;1.57;0.60;;;6.10;99.90;;;;;;4992601;28;20229;-74
2023/12/22 04:11:03;;;;;;;0.40;0.40;;;6.00;99.90;;;;;;5012722;28;20364;-74
2023/12/22 04:13:29;;;;;;;2.40;0.40;;;5.90;99.90;;;;;;4998969;28;20767;-74
2023/12/22 04:15:55;;;;;;;0.80;0.40;;;5.90;99.90;;;;;;5005578;28;20226;-74
2023/12/22 04:18:20;;;;;;;0.50;0.50;;;5.90;99.90;;;;;;4993583;28;20229;-75
2023/12/22 04:20:46;;;;;;;0.90;0.70;;;5.80;99.90;;;;;;5006700;28;20218;-74
2023/12/22 04:23:12;;;;;;;1.07;0.87;;;5.80;99.90;;;;;;5003536;28;20225;-74
2023/12/22 04:25:37;;;;;;;1.17;0.73;;;5.90;99.90;;;;;;5007196;28;20228;-74
2023/12/22 04:28:03;;;;;;;0.73;0.60;;;5.80;99.90;;;;;;4995168;28;20270;-75
2023/12/22 04:30:29;;;;;;;2.23;0.70;;;5.80;99.90;;;;;;4996996;28;20626;-75
2023/12/22 04:32:56;;;;;;;0.83;0.53;;;5.90;99.90;;;;;;4996712;28;20258;-75
2023/12/22 04:35:21;;;;;;;2.13;0.73;;;5.80;99.90;;;;;;4993412;28;20214;-75
2023/12/22 04:37:47;;;;;;;3.03;0.90;;;5.80;99.90;;;;;;5001598;28;20495;-75
2023/12/22 04:40:13;;;;;;;2.20;1.40;;;5.80;99.90;;;;;;5004626;28;20222;-75
2023/12/22 04:42:38;;;;;;;3.90;1.03;;;5.80;99.90;;;;;;5004627;28;20217;-75
2023/12/22 04:45:04;;;;;;;4.60;1.17;;;5.80;99.90;;;;;;5002262;28;20222;-74
2023/12/22 04:47:30;;;;;;;2.40;1.03;;;5.90;99.90;;;;;;4989868;28;20222;-74
2023/12/22 04:49:56;;;;;;;1.87;0.70;;;5.90;99.90;;;;;;5003228;28;20502;-75
2023/12/22 04:52:21;;;;;;;1.50;1.00;;;6.00;99.90;;;;;;4997851;28;20230;-75
2023/12/22 04:54:47;;;;;;;0.50;0.50;;;6.00;99.90;;;;;;4982345;28;20219;-74
2023/12/22 04:57:13;;;;;;;0.67;0.67;;;6.20;99.90;;;;;;5000658;28;20711;-75
2023/12/22 04:59:38;;;;;;;3.47;1.00;;;6.10;99.90;;;;;;4997861;28;20220;-74
2023/12/22 05:02:04;;;;;;;1.97;0.83;;;6.10;99.90;;;;;;5001032;28;20245;-74
2023/12/22 05:04:30;;;;;;;3.20;0.87;;;6.10;99.90;;;;;;5007352;28;20224;-75
2023/12/22 05:06:55;;;;;;;0.50;0.50;;;6.00;99.90;;;;;;5006585;28;20225;-75
2023/12/22 05:09:22;;;;;;;0.70;0.70;;;5.90;99.90;;;;;;4994188;28;20218;-75
2023/12/22 05:11:48;;;;;;;0.87;0.87;;;6.00;99.90;;;;;;4998065;28;20229;-74
2023/12/22 05:14:13;;;;;;;3.43;1.43;;;5.90;99.90;;;;;;4995767;28;20474;-74
2023/12/22 05:16:39;;;;;;;4.93;1.00;;;5.90;99.90;;;;;;5002786;28;20217;-74
2023/12/22 05:19:05;;;;;;;2.77;0.83;;;5.90;99.90;;;;;;4999945;28;20256;-75
2023/12/22 05:21:30;;;;;;;1.53;1.07;;;5.80;99.90;;;;;;5008741;28;20718;-74
2023/12/22 05:23:56;;;;;;;4.03;0.83;;;5.70;99.90;;;;;;5006500;28;20269;-74
2023/12/22 05:26:22;;;;;;;0.90;0.90;;;5.70;99.90;;;;;;4997622;28;20214;-74
2023/12/22 05:28:51;;;;;;;0.90;0.80;;;5.70;99.90;;;;;;4990341;28;20769;-74
2023/12/22 05:31:17;;;;;;;1.50;0.73;;;5.70;99.90;;;;;;5007974;28;20265;-75
2023/12/22 05:33:43;;;;;;;5.93;1.10;;;5.60;99.90;;;;;;4992992;28;20472;-74
2023/12/22 05:36:09;;;;;;;1.70;0.80;;;5.60;99.90;;;;;;4993485;28;20457;-74
2023/12/22 05:38:38;;;;;;;3.03;0.93;;;5.60;99.90;;;;;;4989662;28;20230;-74
2023/12/22 05:41:06;;;;;;;2.93;0.70;;;5.50;99.90;;;;;;5005574;28;20218;-74
2023/12/22 05:43:33;;;;;;;0.73;0.73;;;5.60;99.90;;;;;;4999307;28;20458;-74
2023/12/22 05:45:59;;;;;;;0.60;0.40;;;5.60;99.90;;;;;;4987170;28;20515;-74
2023/12/22 05:48:26;;;;;;;2.00;0.53;;;5.60;99.90;;;;;;5005903;28;21001;-75
2023/12/22 05:50:51;;;;;;;1.13;0.60;;;5.70;99.90;;;;;;5000913;28;20466;-74
2023/12/22 05:53:17;;;;;;;1.73;0.90;;;5.80;99.90;;;;;;4990257;28;20474;-75
2023/12/22 05:55:43;;;;;;;2.00;0.80;;;5.80;99.90;;;;;;4999264;28;20242;-74
2023/12/22 05:58:08;;;;;;;1.90;0.80;;;5.80;99.90;;;;;;4996079;28;20225;-75
2023/12/22 06:00:35;;;;;;;3.67;0.80;;;5.80;99.90;;;;;;5002857;28;20316;-74
2023/12/22 06:03:01;;;;;;;2.40;1.10;;;5.90;99.90;;;;;;4997413;28;20308;-74
2023/12/22 06:05:27;;;;;;;1.60;0.77;;;5.90;99.90;;;;;;4994207;28;20541;-75
2023/12/22 06:07:53;;;;;;;1.00;0.63;;;5.90;99.90;;;;;;4974796;28;20520;-74
2023/12/22 06:10:19;;;;;;;3.10;0.90;;;5.90;99.90;;;;;;4998836;28;20224;-74
2023/12/22 06:12:44;;;;;;;1.57;1.23;;;5.90;99.90;;;;;;5005384;28;20234;-74
2023/12/22 06:15:10;;;;;;;3.40;1.50;;;6.00;99.90;;;;;;5002246;28;20449;-74
2023/12/22 06:17:36;;;;;;;0.77;0.77;;;6.00;99.90;;;;;;4990284;28;20221;-73
2023/12/22 06:20:02;;;;;;;2.20;1.10;;;6.00;99.90;;;;;;5005074;28;20758;-74
2023/12/22 06:22:27;;;;;;;3.80;1.33;;;6.00;99.90;;;;;;4995268;28;20223;-75
2023/12/22 06:24:53;;;;;;;2.80;1.30;;;6.10;99.90;;;;;;4996364;28;20310;-74
2023/12/22 06:27:18;;;;;;;6.00;1.07;;;6.10;99.90;;;;;;4999293;28;20317;-74
2023/12/22 06:29:44;;;;;;;3.30;1.33;;;6.10;99.90;;;;;;4995620;28;20264;-74
2023/12/22 06:32:10;;;;;;;3.93;1.30;;;6.10;99.90;;;;;;5007354;28;20765;-74
2023/12/22 06:34:35;;;;;;;1.80;1.10;;;6.10;99.90;;;;;;4995009;28;20234;-74
2023/12/22 06:37:01;;;;;;;1.70;1.13;;;6.10;99.90;;;;;;5005286;28;20352;-74
2023/12/22 06:39:27;;;;;;;4.40;1.30;;;6.10;99.90;;;;;;5003899;28;20225;-75
2023/12/22 06:41:53;;;;;;;6.13;1.97;;;6.10;99.90;;;;;;4998543;28;20234;-74
2023/12/22 06:44:18;;;;;;;4.70;1.50;;;6.10;99.90;;;;;;5006472;28;20210;-75
2023/12/22 06:46:45;;;;;;;1.30;1.20;;;6.10;99.90;;;;;;5005657;28;20318;-74
2023/12/22 06:49:10;;;;;;;5.33;1.30;;;6.10;99.90;;;;;;4999340;28;20225;-74
2023/12/22 06:51:36;;;;;;;3.53;1.53;;;6.10;99.90;;;;;;4994382;28;20450;-75
2023/12/22 06:54:04;;;;;;;2.80;1.30;;;6.10;99.90;;;;;;5002657;28;20249;-74
2023/12/22 06:56:35;;;;;;;2.10;1.23;;;6.10;99.90;;;;;;4998432;28;20504;-74
2023/12/22 06:59:01;;;;;;;3.87;1.37;;;6.10;99.90;;;;;;5000826;28;20536;-74
2023/12/22 07:01:34;;;;;;;3.90;1.87;;;6.10;99.90;;;;;;5001432;28;20580;-74
2023/12/22 07:04:01;;;;;;;3.37;1.57;;;6.10;99.90;;;;;;5000477;28;20516;-74
2023/12/22 07:06:30;;;;;;;3.87;1.80;;;6.10;99.90;;;;;;4989529;28;20453;-75
2023/12/22 07:09:14;;;;;;;4.33;1.17;;;6.10;99.90;;;;;;4998099;28;20453;-74
2023/12/22 07:11:50;;;;;;;1.60;0.90;;;6.10;99.90;;;;;;4995964;28;20457;-74
2023/12/22 07:14:17;;;;;;;1.87;1.00;;;6.10;99.90;;;;;;4975880;28;20522;-74
2023/12/22 07:16:43;;;;;;;5.50;1.60;;;6.10;99.90;;;;;;4986427;28;20448;-74
2023/12/22 07:19:08;;;;;;;4.23;1.50;;;6.10;99.90;;;;;;4991174;28;20449;-75
2023/12/22 07:21:34;;;;;;;2.73;1.30;;;6.10;99.90;;;;;;4994589;28;20984;-74
2023/12/22 07:24:00;;;;;;;2.67;1.10;;;6.10;99.90;;;;;;4999084;28;20289;-74
2023/12/22 07:26:26;;;;;;;1.73;0.90;;;6.10;99.90;;;;;;4986617;28;20510;-75
2023/12/22 07:28:53;;;;;;;2.80;1.20;;;6.10;99.90;;;;;;4986183;28;20223;-74
2023/12/22 07:31:19;;;;;;;4.00;1.40;;;6.20;99.90;;;;;;5002456;28;20461;-75
2023/12/22 07:33:44;;;;;;;4.70;1.17;;;6.20;99.90;;;;;;4998674;28;20469;-74
2023/12/22 07:36:10;;;;;;;6.47;1.47;;;6.20;99.90;;;;;;4998867;28;20997;-74
2023/12/22 07:38:37;;;;;;;5.20;1.33;;;6.20;99.90;;;;;;4988327;28;20226;-75
2023/12/22 07:41:03;;;;;;;2.47;1.23;;;6.20;99.90;;;;;;5001350;28;20254;-74
2023/12/22 07:43:29;;;;;;;3.80;1.10;;;6.20;99.90;;;;;;4977521;28;20481;-75
2023/12/22 07:45:55;;;;;;;2.30;1.10;;;6.30;99.90;;;;;;5001709;28;20214;-74
2023/12/22 07:48:21;;;;;;;2.00;1.13;;;6.30;99.90;;;;;;5009922;28;20530;-75
2023/12/22 07:50:46;;;;;;;4.33;0.93;;;6.30;99.90;;;;;;5009923;28;20217;-74
2023/12/22 07:53:12;;;;;;;2.13;0.90;;;6.30;99.90;;;;;;4993034;28;20221;-74
2023/12/22 07:55:38;;;;;;;1.63;1.07;;;6.30;99.90;;;;;;5005302;28;20585;-74
2023/12/22 07:58:05;;;;;;;2.37;1.63;;;6.30;99.90;;;;;;5007621;28;20540;-74
2023/12/22 08:00:31;;;;;;;1.60;1.30;;;6.40;99.90;;;;;;4997258;28;20680;-74
2023/12/22 08:02:56;;;;;;;6.50;1.43;;;6.40;99.90;;;;;;5004690;28;20452;-74
2023/12/22 08:05:22;;;;;;;1.57;1.20;;;6.40;99.90;;;;;;4997254;28;20513;-74
2023/12/22 08:07:47;;;;;;;1.73;0.83;;;6.40;99.90;;;;;;5004141;28;20238;-74
2023/12/22 08:10:13;;;;;;;4.37;1.87;;;6.50;99.90;;;;;;4995077;28;20214;-74
2023/12/22 08:12:39;;;;;;;0.73;0.73;;;6.40;99.90;;;;;;5006152;28;20224;-74
2023/12/22 08:15:05;;;;;;;1.70;0.57;;;6.50;99.90;;;;;;4989327;28;20234;-74
2023/12/22 08:17:31;;;;;;;1.53;0.90;;;6.50;99.90;;;;;;4998836;28;20222;-74
2023/12/22 08:19:57;;;;;;;3.17;1.13;;;6.50;99.90;;;;;;5005558;28;20437;-75
2023/12/22 08:22:23;;;;;;;0.80;0.50;;;6.50;99.90;;;;;;5004648;28;20543;-74
2023/12/22 08:24:49;;;;;;;0.93;0.67;;;6.50;99.90;;;;;;4996953;28;20219;-74
2023/12/22 08:27:15;;;;;;;1.13;0.53;;;6.50;99.90;;;;;;4998967;28;20522;-74
2023/12/22 08:29:40;;;;;;;0.70;0.70;;;6.50;99.90;;;;;;4992561;28;21010;-73
2023/12/22 08:32:06;;;;;;;5.10;0.90;;;6.50;99.90;;;;;;5003709;28;20230;-74
2023/12/22 08:34:32;;;;;;;2.20;1.27;;;6.60;99.90;;;;;;5000342;28;20252;-74
2023/12/22 08:36:58;;;;;;;1.17;1.00;;;6.60;99.90;;;;;;5005689;28;20583;-74
2023/12/22 08:39:24;;;;;;;3.57;1.00;;;6.60;99.90;;;;;;4998236;28;20214;-74
2023/12/22 08:41:50;;;;;;;0.87;0.83;;;6.70;99.90;;;;;;4999849;28;20225;-74
2023/12/22 08:44:15;;;;;;;2.80;1.30;;;6.70;99.90;;;;;;5002225;28;20469;-75
2023/12/22 08:46:41;;;;;;;4.73;1.77;;;6.70;99.90;;;;;;5006097;28;20685;-74
2023/12/22 08:49:07;;;;;;;2.40;2.00;;;6.80;99.90;;;;;;5004783;28;20234;-75
2023/12/22 08:51:33;;;;;;;8.50;2.53;;;6.80;99.90;;;;;;5005861;28;20229;-74
2023/12/22 08:53:59;;;;;;;4.43;1.80;;;6.80;99.90;;;;;;5001485;28;20234;-74
2023/12/22 08:56:26;;;;;;;2.90;1.57;;;6.80;99.90;;;;;;4999912;28;20469;-74
2023/12/22 08:58:54;;;;;;;5.50;1.57;;;6.90;99.90;;;;;;4988908;28;20544;-74
2023/12/22 09:01:21;;;;;;;1.90;1.17;;;6.90;99.90;;;;;;5006112;28;21109;-74
2023/12/22 09:03:47;;;;;;;9.80;1.97;;;6.90;99.90;;;;;;5005641;28;20456;-73
2023/12/22 09:06:21;;;;;;;6.87;1.80;;;6.90;99.90;;;;;;5001126;28;20452;-74
2023/12/22 09:08:48;;;;;;;4.30;2.00;;;6.90;99.90;;;;;;5000325;28;20492;-74
2023/12/22 09:11:16;;;;;;;6.43;1.80;;;6.90;99.90;;;;;;4991119;28;20468;-74
2023/12/22 09:13:42;;;;;;;7.60;1.80;;;6.90;99.90;;;;;;5004810;28;20476;-75
2023/12/22 09:16:09;;;;;;;5.33;2.37;;;7.00;99.90;;;;;;4991069;28;20457;-75
2023/12/22 09:18:35;;;;;;;2.67;1.50;;;7.00;99.90;;;;;;5000931;28;20495;-74
2023/12/22 09:21:02;;;;;;;6.63;1.57;;;7.00;99.90;;;;;;5005156;28;20453;-74
2023/12/22 09:23:28;;;;;;;4.03;1.90;;;7.10;99.90;;;;;;4988065;28;20452;-75
2023/12/22 09:25:55;;;;;;;6.23;2.20;;;7.10;99.90;;;;;;5002763;28;20476;-74
2023/12/22 09:28:20;;;;;;;4.97;2.40;;;7.10;99.90;;;;;;5002897;28;20508;-75
2023/12/22 09:30:46;;;;;;;6.47;2.03;;;7.10;99.90;;;;;;4985309;28;20486;-74
2023/12/22 09:33:12;;;;;;;5.17;1.83;;;7.20;99.90;;;;;;5001931;28;20265;-74
2023/12/22 09:35:41;;;;;;;4.07;2.03;;;7.20;99.90;;;;;;4998501;28;20294;-74
2023/12/22 09:38:09;;;;;;;2.53;1.70;;;7.20;99.90;;;;;;5005270;28;20523;-75
2023/12/22 09:40:36;;;;;;;4.13;1.83;;;7.20;99.90;;;;;;5002872;28;20474;-74
2023/12/22 09:43:03;;;;;;;7.67;2.83;;;7.30;99.90;;;;;;4997193;28;20464;-74
2023/12/22 09:45:31;;;;;;;3.20;1.83;;;7.30;99.90;;;;;;4998359;28;20539;-75
2023/12/22 09:47:58;;;;;;;2.90;1.67;;;7.30;99.90;;;;;;5002174;28;20500;-74
2023/12/22 09:50:24;;;;;;;5.70;2.40;;;7.40;99.90;;;;;;5001002;28;20476;-74
2023/12/22 09:52:50;;;;;;;5.10;2.00;;;7.40;99.90;;;;;;4989447;28;20476;-74
2023/12/22 09:55:17;;;;;;;3.40;1.73;;;7.40;99.90;;;;;;5003813;28;20517;-74
2023/12/22 09:57:43;;;;;;;5.17;1.70;;;7.40;99.90;;;;;;5007075;28;20460;-74
2023/12/22 10:00:10;;;;;;;6.03;2.10;;;7.50;99.90;;;;;;5002220;28;20449;-74
2023/12/22 10:02:39;;;;;;;7.33;1.73;;;7.50;99.90;;;;;;5002997;28;20217;-75
2023/12/22 10:05:05;;;;;;;7.97;2.20;;;7.60;99.90;;;;;;4988782;28;20446;-74
2023/12/22 10:07:33;;;;;;;5.80;2.30;;;7.60;99.90;;;;;;5006058;28;20472;-74
2023/12/22 10:10:00;;;;;;;6.17;2.43;;;7.60;99.90;;;;;;4988174;28;20445;-74
2023/12/22 10:12:30;;;;;;;8.67;2.40;;;7.60;99.90;;;;;;5000148;28;20819;-74
2023/12/22 10:14:56;;;;;;;6.00;3.30;;;7.60;99.90;;;;;;5001419;28;20819;-74
2023/12/22 10:17:22;;;;;;;3.43;2.23;;;7.60;99.90;;;;;;4990928;28;20547;-74
2023/12/22 10:19:48;;;;;;;5.17;2.30;;;7.60;99.90;;;;;;5001545;28;20599;-74
2023/12/22 10:22:13;;;;;;;15.43;2.87;;;7.70;99.90;;;;;;4990242;28;20460;-76
2023/12/22 10:24:52;;;;;;;10.20;3.30;;;7.80;99.90;;;;;;5003690;28;20214;-74
2023/12/22 10:27:24;;;;;;;8.13;3.57;;;7.80;99.90;;;;;;4996474;28;20262;-74
2023/12/22 10:29:53;;;;;;;9.03;3.10;;;7.80;99.90;;;;;;4998795;28;20457;-74
2023/12/22 10:32:21;;;;;;;3.40;2.37;;;7.70;99.90;;;;;;4996682;28;20454;-74
2023/12/22 10:34:47;;;;;;;7.10;3.20;;;7.80;99.90;;;;;;4999713;28;20465;-73
2023/12/22 10:37:12;;;;;;;7.13;3.23;;;7.80;99.90;;;;;;4999415;28;20479;-74
2023/12/22 10:39:38;;;;;;;4.73;2.60;;;7.80;99.90;;;;;;4995559;28;20253;-74
2023/12/22 10:42:04;;;;;;;5.07;2.40;;;7.90;99.90;;;;;;5002522;28;20218;-75
2023/12/22 10:44:30;;;;;;;25.57;11.63;;;7.90;99.90;;;;;;4984752;28;20218;-74
2023/12/22 10:46:57;;;;;;;35.10;16.27;;;7.90;99.90;;;;;;5004279;28;20492;-74
2023/12/22 10:49:24;;;;;;;22.07;9.80;;;7.90;99.90;;;;;;5001051;28;20300;-74
2023/12/22 10:51:51;;;;;;;30.00;12.20;;;8.00;99.90;;;;;;5003296;28;20464;-75
2023/12/22 10:54:17;;;;;;;16.73;7.80;;;8.00;99.90;;;;;;4997152;28;20492;-74
2023/12/22 10:56:43;;;;;;;19.93;8.73;;;8.00;99.90;;;;;;5003160;28;20457;-74
2023/12/22 10:59:09;;;;;;;17.23;8.70;;;8.00;99.90;;;;;;5002514;28;20456;-74
2023/12/22 11:01:38;;;;;;;12.47;6.20;;;8.00;99.90;;;;;;5003497;28;20218;-74
2023/12/22 11:04:07;;;;;;;12.63;6.03;;;8.00;99.90;;;;;;5000393;28;20466;-74
2023/12/22 11:06:37;;;;;;;6.97;5.70;;;8.00;99.90;;;;;;4994312;28;20453;-74
2023/12/22 11:09:10;;;;;;;7.77;3.93;;;8.00;99.90;;;;;;4999766;28;20465;-75
2023/12/22 11:11:38;;;;;;;6.17;4.10;;;8.00;99.90;;;;;;4989422;28;20453;-75
2023/12/22 11:14:05;;;;;;;7.70;3.10;;;8.00;99.90;;;;;;5000582;28;20476;-74
2023/12/22 11:16:35;;;;;;;41.70;20.60;;;8.10;99.90;;;;;;5006626;28;20465;-74
2023/12/22 11:19:02;;;;;;;19.23;9.73;;;8.10;99.90;;;;;;5006407;28;20468;-75
2023/12/22 11:21:29;;;;;;;5.33;2.97;;;8.10;99.90;;;;;;5002347;28;20453;-75
2023/12/22 11:23:57;;;;;;;9.13;4.63;;;8.00;99.90;;;;;;4997972;28;20489;-74
2023/12/22 11:26:24;;;;;;;3.23;2.23;;;8.00;99.90;;;;;;5005675;28;20519;-75
2023/12/22 11:28:51;;;;;;;10.43;1.90;;;8.00;99.90;;;;;;4985537;28;20467;-75
2023/12/22 11:31:18;;;;;;;5.17;1.57;;;8.00;99.90;;;;;;4999900;28;20461;-75
2023/12/22 11:33:45;;;;;;;2.73;1.00;;;8.00;99.90;;;;;;5002159;28;20465;-74
2023/12/22 11:36:13;;;;;;;6.73;1.37;;;8.00;99.90;;;;;;5005424;28;20471;-75
2023/12/22 11:38:40;;;;;;;2.90;1.53;;;8.00;99.90;;;;;;5008352;28;20460;-75
2023/12/22 11:41:10;;;;;;;5.37;2.47;;;8.00;99.90;;;;;;4996845;28;20480;-74
2023/12/22 11:43:38;;;;;;;10.13;6.03;;;8.00;99.90;;;;;;4982367;28;20457;-75
2023/12/22 11:46:04;;;;;;;8.17;4.03;;;8.00;99.90;;;;;;5000880;28;20462;-75
2023/12/22 11:48:30;;;;;;;9.40;2.90;;;8.00;99.90;;;;;;5008765;28;21010;-76
2023/12/22 11:50:56;;;;;;;6.47;2.67;;;8.00;99.90;;;;;;5000412;28;20445;-75
2023/12/22 11:53:25;;;;;;;6.60;3.83;;;8.00;99.90;;;;;;4989953;28;20483;-75
2023/12/22 11:56:04;;;;;;;3.37;2.80;;;8.00;99.90;;;;;;4995076;28;20878;-73
2023/12/22 11:58:53;;;;;;;7.00;3.07;;;8.00;99.90;;;;;;4991343;28;20461;-74
2023/12/22 12:01:21;;;;;;;2.27;1.70;;;8.10;99.90;;;;;;4978680;28;20591;-74
2023/12/22 12:04:01;;;;;;;2.43;1.93;;;8.10;99.90;;;;;;4988513;28;20457;-73
2023/12/22 12:06:29;;;;;;;7.27;3.63;;;8.10;99.90;;;;;;4989971;28;20483;-74
2023/12/22 12:08:55;;;;;;;5.20;2.80;;;8.10;99.90;;;;;;4994281;28;20479;-74
2023/12/22 12:11:22;;;;;;;4.27;2.40;;;8.10;99.90;;;;;;5007343;28;20481;-75
2023/12/22 12:13:48;;;;;;;5.10;1.90;;;8.10;99.90;;;;;;4992686;28;20474;-73
2023/12/22 12:16:18;;;;;;;4.60;2.10;;;8.10;99.90;;;;;;4989032;28;20457;-75
2023/12/22 12:18:45;;;;;;;6.73;1.80;;;8.10;99.90;;;;;;4999361;28;20461;-75
2023/12/22 12:21:11;;;;;;;4.77;2.00;;;8.20;99.90;;;;;;5001412;28;20449;-75
2023/12/22 12:23:38;;;;;;;2.20;1.53;;;8.20;99.90;;;;;;4999206;28;20524;-75
2023/12/22 12:26:07;;;;;;;2.00;1.20;;;8.20;99.90;;;;;;5005466;28;20532;-74
2023/12/22 12:28:35;;;;;;;3.00;1.60;;;8.30;99.90;;;;;;5004335;28;20453;-75
2023/12/22 12:31:08;;;;;;;1.90;1.40;;;8.30;99.90;;;;;;4997267;28;20467;-75
2023/12/22 12:33:36;;;;;;;2.83;1.50;;;8.30;99.90;;;;;;4989816;28;20823;-74
2023/12/22 12:36:06;;;;;;;1.47;1.13;;;8.30;99.90;;;;;;5005537;28;20458;-74
2023/12/22 12:39:07;;;;;;;1.10;1.00;;;8.40;99.90;;;;;;5007481;28;20492;-75
2023/12/22 12:41:36;;;;;;;1.77;1.20;;;8.40;99.90;;;;;;5003764;28;20951;-75
2023/12/22 12:44:06;;;;;;;0.90;0.90;;;8.40;99.90;;;;;;4988329;28;20486;-77
2023/12/22 12:46:42;;;;;;;1.50;1.40;;;8.50;99.90;;;;;;4992177;28;20468;-74
2023/12/22 12:49:11;;;;;;;8.90;5.47;;;8.50;99.90;;;;;;4999061;28;20472;-75
2023/12/22 12:51:43;;;;;;;5.13;3.77;;;8.50;99.90;;;;;;4997792;28;20454;-74
2023/12/22 12:54:10;;;;;;;8.93;4.30;;;8.50;99.90;;;;;;5000182;28;20539;-74